sensor_id;sensor_type;location;lat;lon;timestamp;P1;durP1;ratioP1;P2;durP2;ratioP2
42018;SDS011;27703;51.980;5.848;2023-05-13T00:01:40;2.38;;;0.80;;
42018;SDS011;27703;51.980;5.848;2023-05-13T00:04:06;1.40;;;0.95;;
42018;SDS011;27703;51.980;5.848;2023-05-13T00:06:33;2.15;;;0.80;;
42018;SDS011;27703;51.980;5.848;2023-05-13T00:08:59;5.63;;;0.70;;
42018;SDS011;27703;51.980;5.848;2023-05-13T00:11:25;2.72;;;1.05;;
42018;SDS011;27703;51.980;5.848;2023-05-13T00:13:51;1.50;;;0.80;;
42018;SDS011;27703;51.980;5.848;2023-05-13T00:16:17;2.13;;;0.73;;
42018;SDS011;27703;51.980;5.848;2023-05-13T00:18:43;5.43;;;0.60;;
42018;SDS011;27703;51.980;5.848;2023-05-13T00:21:08;2.63;;;0.77;;
42018;SDS011;27703;51.980;5.848;2023-05-13T00:23:34;2.90;;;0.85;;
42018;SDS011;27703;51.980;5.848;2023-05-13T00:25:59;1.45;;;0.60;;
42018;SDS011;27703;51.980;5.848;2023-05-13T00:28:25;1.67;;;0.68;;
42018;SDS011;27703;51.980;5.848;2023-05-13T00:30:51;1.23;;;0.70;;
42018;SDS011;27703;51.980;5.848;2023-05-13T00:33:17;1.33;;;0.80;;
42018;SDS011;27703;51.980;5.848;2023-05-13T00:35:42;1.70;;;1.08;;
42018;SDS011;27703;51.980;5.848;2023-05-13T00:38:08;3.65;;;0.90;;
42018;SDS011;27703;51.980;5.848;2023-05-13T00:40:37;1.80;;;0.70;;
42018;SDS011;27703;51.980;5.848;2023-05-13T00:43:07;2.58;;;0.80;;
42018;SDS011;27703;51.980;5.848;2023-05-13T00:45:34;1.55;;;0.65;;
42018;SDS011;27703;51.980;5.848;2023-05-13T00:48:00;1.40;;;0.63;;
42018;SDS011;27703;51.980;5.848;2023-05-13T00:50:28;2.63;;;0.88;;
42018;SDS011;27703;51.980;5.848;2023-05-13T00:52:54;2.00;;;0.70;;
42018;SDS011;27703;51.980;5.848;2023-05-13T00:55:22;1.10;;;0.60;;
42018;SDS011;27703;51.980;5.848;2023-05-13T00:57:48;2.10;;;0.70;;
42018;SDS011;27703;51.980;5.848;2023-05-13T01:00:13;1.90;;;0.95;;
42018;SDS011;27703;51.980;5.848;2023-05-13T01:02:44;1.33;;;0.70;;
42018;SDS011;27703;51.980;5.848;2023-05-13T01:05:34;1.63;;;0.97;;
42018;SDS011;27703;51.980;5.848;2023-05-13T01:11:01;1.83;;;0.73;;
42018;SDS011;27703;51.980;5.848;2023-05-13T01:13:32;2.40;;;1.00;;
42018;SDS011;27703;51.980;5.848;2023-05-13T01:18:35;1.77;;;0.95;;
42018;SDS011;27703;51.980;5.848;2023-05-13T01:21:04;1.38;;;0.85;;
42018;SDS011;27703;51.980;5.848;2023-05-13T01:23:30;2.40;;;0.90;;
42018;SDS011;27703;51.980;5.848;2023-05-13T01:25:56;3.08;;;0.90;;
42018;SDS011;27703;51.980;5.848;2023-05-13T01:28:21;1.55;;;0.70;;
42018;SDS011;27703;51.980;5.848;2023-05-13T01:30:47;1.95;;;0.90;;
42018;SDS011;27703;51.980;5.848;2023-05-13T01:33:14;1.88;;;0.73;;
42018;SDS011;27703;51.980;5.848;2023-05-13T01:35:40;2.90;;;0.75;;
42018;SDS011;27703;51.980;5.848;2023-05-13T01:38:07;2.55;;;0.77;;
42018;SDS011;27703;51.980;5.848;2023-05-13T01:40:33;1.35;;;0.77;;
42018;SDS011;27703;51.980;5.848;2023-05-13T01:42:59;1.95;;;1.02;;
42018;SDS011;27703;51.980;5.848;2023-05-13T01:45:26;1.70;;;1.02;;
42018;SDS011;27703;51.980;5.848;2023-05-13T01:47:53;1.55;;;0.60;;
42018;SDS011;27703;51.980;5.848;2023-05-13T01:50:19;2.63;;;0.60;;
42018;SDS011;27703;51.980;5.848;2023-05-13T01:52:44;1.38;;;0.88;;
42018;SDS011;27703;51.980;5.848;2023-05-13T01:55:10;1.80;;;0.95;;
42018;SDS011;27703;51.980;5.848;2023-05-13T01:57:36;2.03;;;1.20;;
42018;SDS011;27703;51.980;5.848;2023-05-13T02:00:02;2.33;;;0.82;;
42018;SDS011;27703;51.980;5.848;2023-05-13T02:02:28;1.83;;;0.93;;
42018;SDS011;27703;51.980;5.848;2023-05-13T02:04:54;1.60;;;1.17;;
42018;SDS011;27703;51.980;5.848;2023-05-13T02:07:20;2.33;;;0.80;;
42018;SDS011;27703;51.980;5.848;2023-05-13T02:09:45;2.53;;;1.10;;
42018;SDS011;27703;51.980;5.848;2023-05-13T02:12:11;2.03;;;1.02;;
42018;SDS011;27703;51.980;5.848;2023-05-13T02:14:36;1.55;;;0.80;;
42018;SDS011;27703;51.980;5.848;2023-05-13T02:17:02;3.15;;;0.90;;
42018;SDS011;27703;51.980;5.848;2023-05-13T02:19:28;1.20;;;0.70;;
42018;SDS011;27703;51.980;5.848;2023-05-13T02:21:54;2.63;;;1.10;;
42018;SDS011;27703;51.980;5.848;2023-05-13T02:24:19;3.70;;;1.48;;
42018;SDS011;27703;51.980;5.848;2023-05-13T02:26:45;1.30;;;1.00;;
42018;SDS011;27703;51.980;5.848;2023-05-13T02:29:10;2.05;;;0.90;;
42018;SDS011;27703;51.980;5.848;2023-05-13T02:31:36;4.68;;;1.42;;
42018;SDS011;27703;51.980;5.848;2023-05-13T02:34:02;1.73;;;0.90;;
42018;SDS011;27703;51.980;5.848;2023-05-13T02:36:27;2.10;;;1.30;;
42018;SDS011;27703;51.980;5.848;2023-05-13T02:38:53;1.60;;;0.80;;
42018;SDS011;27703;51.980;5.848;2023-05-13T02:41:18;2.63;;;1.20;;
42018;SDS011;27703;51.980;5.848;2023-05-13T02:43:44;2.40;;;1.15;;
42018;SDS011;27703;51.980;5.848;2023-05-13T02:46:09;2.70;;;1.38;;
42018;SDS011;27703;51.980;5.848;2023-05-13T02:48:35;2.33;;;1.55;;
42018;SDS011;27703;51.980;5.848;2023-05-13T02:51:00;2.05;;;0.98;;
42018;SDS011;27703;51.980;5.848;2023-05-13T02:53:26;2.55;;;1.23;;
42018;SDS011;27703;51.980;5.848;2023-05-13T02:55:52;2.60;;;1.27;;
42018;SDS011;27703;51.980;5.848;2023-05-13T02:58:18;3.72;;;1.70;;
42018;SDS011;27703;51.980;5.848;2023-05-13T03:00:43;4.05;;;1.42;;
42018;SDS011;27703;51.980;5.848;2023-05-13T03:03:09;3.33;;;2.17;;
42018;SDS011;27703;51.980;5.848;2023-05-13T03:05:34;3.05;;;1.65;;
42018;SDS011;27703;51.980;5.848;2023-05-13T03:08:00;2.03;;;1.50;;
42018;SDS011;27703;51.980;5.848;2023-05-13T03:10:26;2.17;;;1.23;;
42018;SDS011;27703;51.980;5.848;2023-05-13T03:12:51;2.97;;;1.67;;
42018;SDS011;27703;51.980;5.848;2023-05-13T03:15:17;3.75;;;2.05;;
42018;SDS011;27703;51.980;5.848;2023-05-13T03:17:42;5.80;;;1.98;;
42018;SDS011;27703;51.980;5.848;2023-05-13T03:20:08;3.33;;;1.40;;
42018;SDS011;27703;51.980;5.848;2023-05-13T03:22:35;1.98;;;1.50;;
42018;SDS011;27703;51.980;5.848;2023-05-13T03:25:02;3.20;;;1.98;;
42018;SDS011;27703;51.980;5.848;2023-05-13T03:27:29;3.28;;;1.85;;
42018;SDS011;27703;51.980;5.848;2023-05-13T03:29:55;2.08;;;1.77;;
42018;SDS011;27703;51.980;5.848;2023-05-13T03:32:20;4.05;;;1.88;;
42018;SDS011;27703;51.980;5.848;2023-05-13T03:34:47;2.38;;;2.10;;
42018;SDS011;27703;51.980;5.848;2023-05-13T03:37:13;1.70;;;1.45;;
42018;SDS011;27703;51.980;5.848;2023-05-13T03:39:38;2.22;;;1.77;;
42018;SDS011;27703;51.980;5.848;2023-05-13T03:42:04;1.98;;;1.58;;
42018;SDS011;27703;51.980;5.848;2023-05-13T03:44:29;3.50;;;1.95;;
42018;SDS011;27703;51.980;5.848;2023-05-13T03:46:55;2.45;;;2.13;;
42018;SDS011;27703;51.980;5.848;2023-05-13T03:49:20;4.05;;;2.58;;
42018;SDS011;27703;51.980;5.848;2023-05-13T03:51:46;3.67;;;1.95;;
42018;SDS011;27703;51.980;5.848;2023-05-13T03:54:11;4.13;;;2.10;;
42018;SDS011;27703;51.980;5.848;2023-05-13T03:56:37;2.95;;;2.47;;
42018;SDS011;27703;51.980;5.848;2023-05-13T03:59:02;2.05;;;1.85;;
42018;SDS011;27703;51.980;5.848;2023-05-13T04:01:28;4.45;;;2.35;;
42018;SDS011;27703;51.980;5.848;2023-05-13T04:03:54;3.65;;;2.55;;
42018;SDS011;27703;51.980;5.848;2023-05-13T04:06:19;2.60;;;2.22;;
42018;SDS011;27703;51.980;5.848;2023-05-13T04:08:45;3.83;;;2.55;;
42018;SDS011;27703;51.980;5.848;2023-05-13T04:11:11;2.15;;;1.88;;
42018;SDS011;27703;51.980;5.848;2023-05-13T04:13:36;5.05;;;2.50;;
42018;SDS011;27703;51.980;5.848;2023-05-13T04:16:02;4.65;;;2.50;;
42018;SDS011;27703;51.980;5.848;2023-05-13T04:18:28;4.88;;;2.83;;
42018;SDS011;27703;51.980;5.848;2023-05-13T04:20:54;4.25;;;2.72;;
42018;SDS011;27703;51.980;5.848;2023-05-13T04:23:20;3.42;;;2.70;;
42018;SDS011;27703;51.980;5.848;2023-05-13T04:25:49;3.95;;;2.72;;
42018;SDS011;27703;51.980;5.848;2023-05-13T04:28:16;3.20;;;2.65;;
42018;SDS011;27703;51.980;5.848;2023-05-13T04:30:42;3.25;;;2.63;;
42018;SDS011;27703;51.980;5.848;2023-05-13T04:33:08;3.10;;;2.67;;
42018;SDS011;27703;51.980;5.848;2023-05-13T04:35:33;3.28;;;2.65;;
42018;SDS011;27703;51.980;5.848;2023-05-13T04:37:59;4.80;;;2.75;;
42018;SDS011;27703;51.980;5.848;2023-05-13T04:40:24;3.22;;;2.40;;
42018;SDS011;27703;51.980;5.848;2023-05-13T04:42:50;3.78;;;2.08;;
42018;SDS011;27703;51.980;5.848;2023-05-13T04:45:19;9.57;;;2.33;;
42018;SDS011;27703;51.980;5.848;2023-05-13T04:47:45;3.80;;;2.40;;
42018;SDS011;27703;51.980;5.848;2023-05-13T04:50:10;2.17;;;1.90;;
42018;SDS011;27703;51.980;5.848;2023-05-13T04:52:36;3.53;;;2.83;;
42018;SDS011;27703;51.980;5.848;2023-05-13T04:55:02;3.33;;;2.63;;
42018;SDS011;27703;51.980;5.848;2023-05-13T04:57:27;4.13;;;2.20;;
42018;SDS011;27703;51.980;5.848;2023-05-13T04:59:53;3.15;;;2.83;;
42018;SDS011;27703;51.980;5.848;2023-05-13T05:02:18;6.55;;;3.05;;
42018;SDS011;27703;51.980;5.848;2023-05-13T05:04:44;3.25;;;2.95;;
42018;SDS011;27703;51.980;5.848;2023-05-13T05:07:10;3.75;;;3.33;;
42018;SDS011;27703;51.980;5.848;2023-05-13T05:09:35;5.00;;;3.17;;
42018;SDS011;27703;51.980;5.848;2023-05-13T05:12:01;5.80;;;3.03;;
42018;SDS011;27703;51.980;5.848;2023-05-13T05:14:26;5.93;;;3.40;;
42018;SDS011;27703;51.980;5.848;2023-05-13T05:16:52;2.47;;;2.25;;
42018;SDS011;27703;51.980;5.848;2023-05-13T05:19:17;4.03;;;3.60;;
42018;SDS011;27703;51.980;5.848;2023-05-13T05:21:47;2.80;;;2.60;;
42018;SDS011;27703;51.980;5.848;2023-05-13T05:24:16;3.42;;;2.28;;
42018;SDS011;27703;51.980;5.848;2023-05-13T05:26:42;3.63;;;2.85;;
42018;SDS011;27703;51.980;5.848;2023-05-13T05:29:08;3.33;;;3.03;;
42018;SDS011;27703;51.980;5.848;2023-05-13T05:31:33;3.65;;;2.85;;
42018;SDS011;27703;51.980;5.848;2023-05-13T05:33:59;4.45;;;3.00;;
42018;SDS011;27703;51.980;5.848;2023-05-13T05:36:25;3.92;;;3.22;;
42018;SDS011;27703;51.980;5.848;2023-05-13T05:38:52;2.85;;;2.05;;
42018;SDS011;27703;51.980;5.848;2023-05-13T05:41:18;5.30;;;3.20;;
42018;SDS011;27703;51.980;5.848;2023-05-13T05:43:43;3.38;;;2.45;;
42018;SDS011;27703;51.980;5.848;2023-05-13T05:46:09;4.25;;;2.78;;
42018;SDS011;27703;51.980;5.848;2023-05-13T05:48:34;4.40;;;3.63;;
42018;SDS011;27703;51.980;5.848;2023-05-13T05:51:00;4.65;;;3.05;;
42018;SDS011;27703;51.980;5.848;2023-05-13T05:53:26;3.88;;;3.22;;
42018;SDS011;27703;51.980;5.848;2023-05-13T05:55:51;4.20;;;2.63;;
42018;SDS011;27703;51.980;5.848;2023-05-13T05:58:17;3.85;;;2.55;;
42018;SDS011;27703;51.980;5.848;2023-05-13T06:00:42;4.70;;;3.45;;
42018;SDS011;27703;51.980;5.848;2023-05-13T06:03:08;3.67;;;2.70;;
42018;SDS011;27703;51.980;5.848;2023-05-13T06:05:33;4.63;;;3.42;;
42018;SDS011;27703;51.980;5.848;2023-05-13T06:07:59;5.00;;;3.08;;
42018;SDS011;27703;51.980;5.848;2023-05-13T06:10:24;3.30;;;3.00;;
42018;SDS011;27703;51.980;5.848;2023-05-13T06:12:51;3.67;;;3.15;;
42018;SDS011;27703;51.980;5.848;2023-05-13T06:15:17;3.05;;;2.67;;
42018;SDS011;27703;51.980;5.848;2023-05-13T06:17:42;3.28;;;2.85;;
42018;SDS011;27703;51.980;5.848;2023-05-13T06:20:08;4.03;;;2.60;;
42018;SDS011;27703;51.980;5.848;2023-05-13T06:22:34;6.05;;;3.38;;
42018;SDS011;27703;51.980;5.848;2023-05-13T06:24:59;3.70;;;2.65;;
42018;SDS011;27703;51.980;5.848;2023-05-13T06:27:25;3.00;;;2.70;;
42018;SDS011;27703;51.980;5.848;2023-05-13T06:29:51;3.08;;;2.67;;
42018;SDS011;27703;51.980;5.848;2023-05-13T06:32:16;3.83;;;2.88;;
42018;SDS011;27703;51.980;5.848;2023-05-13T06:34:42;3.58;;;2.50;;
42018;SDS011;27703;51.980;5.848;2023-05-13T06:37:11;2.95;;;2.65;;
42018;SDS011;27703;51.980;5.848;2023-05-13T06:39:37;3.47;;;2.92;;
42018;SDS011;27703;51.980;5.848;2023-05-13T06:42:03;3.45;;;2.15;;
42018;SDS011;27703;51.980;5.848;2023-05-13T06:44:29;3.10;;;2.35;;
42018;SDS011;27703;51.980;5.848;2023-05-13T06:46:55;5.85;;;1.83;;
42018;SDS011;27703;51.980;5.848;2023-05-13T06:49:20;2.60;;;1.75;;
42018;SDS011;27703;51.980;5.848;2023-05-13T06:51:46;3.17;;;1.90;;
42018;SDS011;27703;51.980;5.848;2023-05-13T06:54:12;2.55;;;2.17;;
42018;SDS011;27703;51.980;5.848;2023-05-13T06:56:38;2.67;;;1.55;;
42018;SDS011;27703;51.980;5.848;2023-05-13T06:59:03;2.58;;;2.25;;
42018;SDS011;27703;51.980;5.848;2023-05-13T07:01:29;2.63;;;1.88;;
42018;SDS011;27703;51.980;5.848;2023-05-13T07:03:54;1.85;;;1.35;;
42018;SDS011;27703;51.980;5.848;2023-05-13T07:06:20;2.53;;;2.03;;
42018;SDS011;27703;51.980;5.848;2023-05-13T07:08:46;6.25;;;3.20;;
42018;SDS011;27703;51.980;5.848;2023-05-13T07:11:11;5.10;;;2.63;;
42018;SDS011;27703;51.980;5.848;2023-05-13T07:13:37;6.18;;;1.60;;
42018;SDS011;27703;51.980;5.848;2023-05-13T07:16:02;3.13;;;1.90;;
42018;SDS011;27703;51.980;5.848;2023-05-13T07:18:28;3.40;;;1.77;;
42018;SDS011;27703;51.980;5.848;2023-05-13T07:20:54;2.80;;;1.60;;
42018;SDS011;27703;51.980;5.848;2023-05-13T07:23:23;2.75;;;1.73;;
42018;SDS011;27703;51.980;5.848;2023-05-13T07:25:49;1.67;;;1.23;;
42018;SDS011;27703;51.980;5.848;2023-05-13T07:28:17;2.17;;;1.52;;
42018;SDS011;27703;51.980;5.848;2023-05-13T07:30:45;3.83;;;1.50;;
42018;SDS011;27703;51.980;5.848;2023-05-13T07:33:11;2.85;;;2.00;;
42018;SDS011;27703;51.980;5.848;2023-05-13T07:35:37;2.65;;;1.98;;
42018;SDS011;27703;51.980;5.848;2023-05-13T07:38:03;3.47;;;1.55;;
42018;SDS011;27703;51.980;5.848;2023-05-13T07:40:28;1.63;;;1.08;;
42018;SDS011;27703;51.980;5.848;2023-05-13T07:42:54;3.25;;;1.58;;
42018;SDS011;27703;51.980;5.848;2023-05-13T07:45:20;2.25;;;1.23;;
42018;SDS011;27703;51.980;5.848;2023-05-13T07:47:45;2.13;;;1.58;;
42018;SDS011;27703;51.980;5.848;2023-05-13T07:50:11;3.22;;;1.42;;
42018;SDS011;27703;51.980;5.848;2023-05-13T07:52:36;8.07;;;2.25;;
42018;SDS011;27703;51.980;5.848;2023-05-13T07:55:02;4.60;;;2.00;;
42018;SDS011;27703;51.980;5.848;2023-05-13T07:57:28;3.67;;;2.53;;
42018;SDS011;27703;51.980;5.848;2023-05-13T07:59:54;3.75;;;1.80;;
42018;SDS011;27703;51.980;5.848;2023-05-13T08:02:19;3.03;;;1.42;;
42018;SDS011;27703;51.980;5.848;2023-05-13T08:04:45;2.08;;;1.40;;
42018;SDS011;27703;51.980;5.848;2023-05-13T08:07:11;2.42;;;1.10;;
42018;SDS011;27703;51.980;5.848;2023-05-13T08:09:36;2.95;;;1.67;;
42018;SDS011;27703;51.980;5.848;2023-05-13T08:12:02;2.67;;;1.40;;
42018;SDS011;27703;51.980;5.848;2023-05-13T08:14:27;2.88;;;1.20;;
42018;SDS011;27703;51.980;5.848;2023-05-13T08:16:53;2.97;;;1.33;;
42018;SDS011;27703;51.980;5.848;2023-05-13T08:19:19;1.75;;;1.05;;
42018;SDS011;27703;51.980;5.848;2023-05-13T08:21:44;1.83;;;1.00;;
42018;SDS011;27703;51.980;5.848;2023-05-13T08:24:10;1.90;;;1.23;;
42018;SDS011;27703;51.980;5.848;2023-05-13T08:26:36;1.95;;;1.08;;
42018;SDS011;27703;51.980;5.848;2023-05-13T08:29:01;2.20;;;1.50;;
42018;SDS011;27703;51.980;5.848;2023-05-13T08:31:27;2.95;;;1.38;;
42018;SDS011;27703;51.980;5.848;2023-05-13T08:33:53;1.80;;;0.90;;
42018;SDS011;27703;51.980;5.848;2023-05-13T08:36:19;3.78;;;1.23;;
42018;SDS011;27703;51.980;5.848;2023-05-13T08:38:45;1.70;;;0.80;;
42018;SDS011;27703;51.980;5.848;2023-05-13T08:41:11;1.10;;;0.63;;
42018;SDS011;27703;51.980;5.848;2023-05-13T08:43:38;1.73;;;0.90;;
42018;SDS011;27703;51.980;5.848;2023-05-13T08:46:04;1.75;;;0.77;;
42018;SDS011;27703;51.980;5.848;2023-05-13T08:48:33;2.58;;;0.88;;
42018;SDS011;27703;51.980;5.848;2023-05-13T08:51:00;1.30;;;0.60;;
42018;SDS011;27703;51.980;5.848;2023-05-13T08:53:26;1.90;;;0.70;;
42018;SDS011;27703;51.980;5.848;2023-05-13T08:55:52;2.20;;;0.95;;
42018;SDS011;27703;51.980;5.848;2023-05-13T08:58:18;1.85;;;0.60;;
42018;SDS011;27703;51.980;5.848;2023-05-13T09:00:44;2.55;;;0.70;;
42018;SDS011;27703;51.980;5.848;2023-05-13T09:03:10;1.90;;;0.70;;
42018;SDS011;27703;51.980;5.848;2023-05-13T09:05:36;1.52;;;0.75;;
42018;SDS011;27703;51.980;5.848;2023-05-13T09:08:04;2.53;;;0.70;;
42018;SDS011;27703;51.980;5.848;2023-05-13T09:10:33;1.42;;;0.60;;
42018;SDS011;27703;51.980;5.848;2023-05-13T09:12:58;3.17;;;0.80;;
42018;SDS011;27703;51.980;5.848;2023-05-13T09:15:25;2.28;;;0.60;;
42018;SDS011;27703;51.980;5.848;2023-05-13T09:17:57;2.10;;;0.70;;
42018;SDS011;27703;51.980;5.848;2023-05-13T09:20:28;1.02;;;0.60;;
42018;SDS011;27703;51.980;5.848;2023-05-13T09:22:55;1.40;;;0.60;;
42018;SDS011;27703;51.980;5.848;2023-05-13T09:25:24;1.25;;;0.50;;
42018;SDS011;27703;51.980;5.848;2023-05-13T09:27:55;1.33;;;0.60;;
42018;SDS011;27703;51.980;5.848;2023-05-13T09:30:29;1.73;;;0.60;;
42018;SDS011;27703;51.980;5.848;2023-05-13T09:35:33;8.27;;;0.50;;
42018;SDS011;27703;51.980;5.848;2023-05-13T09:38:00;2.75;;;0.60;;
42018;SDS011;27703;51.980;5.848;2023-05-13T09:40:26;2.03;;;0.70;;
42018;SDS011;27703;51.980;5.848;2023-05-13T09:42:55;2.08;;;0.70;;
42018;SDS011;27703;51.980;5.848;2023-05-13T09:45:21;0.90;;;0.50;;
42018;SDS011;27703;51.980;5.848;2023-05-13T09:47:49;4.07;;;0.70;;
42018;SDS011;27703;51.980;5.848;2023-05-13T09:50:18;2.33;;;0.60;;
42018;SDS011;27703;51.980;5.848;2023-05-13T09:52:45;0.95;;;0.55;;
42018;SDS011;27703;51.980;5.848;2023-05-13T09:55:11;0.73;;;0.40;;
42018;SDS011;27703;51.980;5.848;2023-05-13T09:57:37;1.55;;;0.50;;
42018;SDS011;27703;51.980;5.848;2023-05-13T10:00:04;1.00;;;0.50;;
42018;SDS011;27703;51.980;5.848;2023-05-13T10:02:30;1.58;;;0.55;;
42018;SDS011;27703;51.980;5.848;2023-05-13T10:04:56;1.63;;;0.60;;
42018;SDS011;27703;51.980;5.848;2023-05-13T10:07:22;1.08;;;0.50;;
42018;SDS011;27703;51.980;5.848;2023-05-13T10:09:53;1.40;;;0.50;;
42018;SDS011;27703;51.980;5.848;2023-05-13T10:12:23;1.02;;;0.50;;
42018;SDS011;27703;51.980;5.848;2023-05-13T10:14:51;0.98;;;0.40;;
42018;SDS011;27703;51.980;5.848;2023-05-13T10:17:21;1.42;;;0.50;;
42018;SDS011;27703;51.980;5.848;2023-05-13T10:19:49;1.77;;;0.50;;
42018;SDS011;27703;51.980;5.848;2023-05-13T10:22:29;0.95;;;0.40;;
42018;SDS011;27703;51.980;5.848;2023-05-13T10:24:56;1.17;;;0.50;;
42018;SDS011;27703;51.980;5.848;2023-05-13T10:27:27;1.50;;;0.60;;
42018;SDS011;27703;51.980;5.848;2023-05-13T10:29:54;1.33;;;0.70;;
42018;SDS011;27703;51.980;5.848;2023-05-13T10:32:25;1.90;;;0.50;;
42018;SDS011;27703;51.980;5.848;2023-05-13T10:34:53;2.20;;;0.50;;
42018;SDS011;27703;51.980;5.848;2023-05-13T10:43:17;0.95;;;0.38;;
42018;SDS011;27703;51.980;5.848;2023-05-13T10:45:47;1.38;;;0.52;;
42018;SDS011;27703;51.980;5.848;2023-05-13T10:48:15;1.25;;;0.60;;
42018;SDS011;27703;51.980;5.848;2023-05-13T10:50:55;1.05;;;0.50;;
42018;SDS011;27703;51.980;5.848;2023-05-13T10:53:28;1.83;;;0.57;;
42018;SDS011;27703;51.980;5.848;2023-05-13T10:55:56;3.10;;;0.38;;
42018;SDS011;27703;51.980;5.848;2023-05-13T10:58:27;1.38;;;0.60;;
42018;SDS011;27703;51.980;5.848;2023-05-13T11:01:11;1.83;;;0.43;;
42018;SDS011;27703;51.980;5.848;2023-05-13T11:03:40;1.20;;;0.70;;
42018;SDS011;27703;51.980;5.848;2023-05-13T11:06:15;1.77;;;0.50;;
42018;SDS011;27703;51.980;5.848;2023-05-13T11:08:43;1.30;;;0.57;;
42018;SDS011;27703;51.980;5.848;2023-05-13T11:11:29;1.73;;;0.40;;
42018;SDS011;27703;51.980;5.848;2023-05-13T11:19:26;1.88;;;0.60;;
42018;SDS011;27703;51.980;5.848;2023-05-13T11:21:54;1.35;;;0.50;;
42018;SDS011;27703;51.980;5.848;2023-05-13T11:24:22;1.17;;;0.60;;
42018;SDS011;27703;51.980;5.848;2023-05-13T11:26:55;0.90;;;0.40;;
42018;SDS011;27703;51.980;5.848;2023-05-13T11:31:58;2.90;;;0.40;;
42018;SDS011;27703;51.980;5.848;2023-05-13T11:34:25;1.10;;;0.52;;
42018;SDS011;27703;51.980;5.848;2023-05-13T11:39:28;1.80;;;0.60;;
42018;SDS011;27703;51.980;5.848;2023-05-13T11:41:55;1.65;;;0.50;;
42018;SDS011;27703;51.980;5.848;2023-05-13T11:44:22;0.90;;;0.50;;
42018;SDS011;27703;51.980;5.848;2023-05-13T11:51:59;2.75;;;0.50;;
42018;SDS011;27703;51.980;5.848;2023-05-13T11:54:25;0.85;;;0.43;;
42018;SDS011;27703;51.980;5.848;2023-05-13T11:56:51;1.00;;;0.50;;
42018;SDS011;27703;51.980;5.848;2023-05-13T11:59:16;2.63;;;0.40;;
42018;SDS011;27703;51.980;5.848;2023-05-13T12:01:42;0.98;;;0.45;;
42018;SDS011;27703;51.980;5.848;2023-05-13T12:04:08;3.05;;;0.45;;
42018;SDS011;27703;51.980;5.848;2023-05-13T12:06:34;2.75;;;0.50;;
42018;SDS011;27703;51.980;5.848;2023-05-13T12:09:06;2.55;;;0.40;;
42018;SDS011;27703;51.980;5.848;2023-05-13T12:11:32;1.55;;;0.40;;
42018;SDS011;27703;51.980;5.848;2023-05-13T12:13:59;2.13;;;0.45;;
42018;SDS011;27703;51.980;5.848;2023-05-13T12:16:25;4.45;;;0.63;;
42018;SDS011;27703;51.980;5.848;2023-05-13T12:19:04;1.38;;;0.70;;
42018;SDS011;27703;51.980;5.848;2023-05-13T12:21:31;1.90;;;0.50;;
42018;SDS011;27703;51.980;5.848;2023-05-13T12:23:57;1.52;;;0.50;;
42018;SDS011;27703;51.980;5.848;2023-05-13T12:26:23;0.88;;;0.60;;
42018;SDS011;27703;51.980;5.848;2023-05-13T12:28:55;1.48;;;0.50;;
42018;SDS011;27703;51.980;5.848;2023-05-13T12:31:22;2.13;;;0.40;;
42018;SDS011;27703;51.980;5.848;2023-05-13T12:33:48;2.17;;;0.40;;
42018;SDS011;27703;51.980;5.848;2023-05-13T12:36:14;1.70;;;0.65;;
42018;SDS011;27703;51.980;5.848;2023-05-13T12:39:18;1.63;;;0.40;;
42018;SDS011;27703;51.980;5.848;2023-05-13T12:41:49;3.03;;;0.50;;
42018;SDS011;27703;51.980;5.848;2023-05-13T12:44:17;1.20;;;0.45;;
42018;SDS011;27703;51.980;5.848;2023-05-13T12:46:49;4.95;;;0.52;;
42018;SDS011;27703;51.980;5.848;2023-05-13T12:49:18;1.20;;;0.50;;
42018;SDS011;27703;51.980;5.848;2023-05-13T12:51:44;3.85;;;0.50;;
42018;SDS011;27703;51.980;5.848;2023-05-13T12:54:10;1.20;;;0.52;;
42018;SDS011;27703;51.980;5.848;2023-05-13T12:56:36;0.90;;;0.40;;
42018;SDS011;27703;51.980;5.848;2023-05-13T12:59:04;3.97;;;0.30;;
42018;SDS011;27703;51.980;5.848;2023-05-13T13:01:29;5.18;;;0.50;;
42018;SDS011;27703;51.980;5.848;2023-05-13T13:03:55;2.22;;;0.40;;
42018;SDS011;27703;51.980;5.848;2023-05-13T13:06:21;0.75;;;0.30;;
42018;SDS011;27703;51.980;5.848;2023-05-13T13:08:46;1.15;;;0.40;;
42018;SDS011;27703;51.980;5.848;2023-05-13T13:11:12;3.72;;;0.40;;
42018;SDS011;27703;51.980;5.848;2023-05-13T13:13:42;0.90;;;0.40;;
42018;SDS011;27703;51.980;5.848;2023-05-13T13:16:12;2.58;;;0.60;;
42018;SDS011;27703;51.980;5.848;2023-05-13T13:18:38;1.63;;;0.50;;
42018;SDS011;27703;51.980;5.848;2023-05-13T13:21:04;0.75;;;0.32;;
42018;SDS011;27703;51.980;5.848;2023-05-13T13:23:31;0.80;;;0.35;;
42018;SDS011;27703;51.980;5.848;2023-05-13T13:25:57;1.02;;;0.40;;
42018;SDS011;27703;51.980;5.848;2023-05-13T13:28:23;0.80;;;0.40;;
42018;SDS011;27703;51.980;5.848;2023-05-13T13:30:49;0.95;;;0.30;;
42018;SDS011;27703;51.980;5.848;2023-05-13T13:33:15;1.15;;;0.40;;
42018;SDS011;27703;51.980;5.848;2023-05-13T13:35:44;1.48;;;0.40;;
42018;SDS011;27703;51.980;5.848;2023-05-13T13:38:11;2.70;;;0.52;;
42018;SDS011;27703;51.980;5.848;2023-05-13T13:40:37;2.97;;;0.40;;
42018;SDS011;27703;51.980;5.848;2023-05-13T13:43:03;1.60;;;0.40;;
42018;SDS011;27703;51.980;5.848;2023-05-13T13:45:30;1.02;;;0.40;;
42018;SDS011;27703;51.980;5.848;2023-05-13T13:47:56;0.77;;;0.30;;
42018;SDS011;27703;51.980;5.848;2023-05-13T13:50:21;2.22;;;0.40;;
42018;SDS011;27703;51.980;5.848;2023-05-13T13:52:47;2.45;;;0.40;;
42018;SDS011;27703;51.980;5.848;2023-05-13T13:55:12;0.85;;;0.40;;
42018;SDS011;27703;51.980;5.848;2023-05-13T13:57:39;1.73;;;0.30;;
42018;SDS011;27703;51.980;5.848;2023-05-13T14:00:04;0.68;;;0.30;;
42018;SDS011;27703;51.980;5.848;2023-05-13T14:02:31;0.82;;;0.40;;
42018;SDS011;27703;51.980;5.848;2023-05-13T14:04:56;1.85;;;0.47;;
42018;SDS011;27703;51.980;5.848;2023-05-13T14:07:22;1.83;;;0.55;;
42018;SDS011;27703;51.980;5.848;2023-05-13T14:09:47;2.10;;;0.40;;
42018;SDS011;27703;51.980;5.848;2023-05-13T14:12:13;1.52;;;0.35;;
42018;SDS011;27703;51.980;5.848;2023-05-13T14:14:39;0.80;;;0.32;;
42018;SDS011;27703;51.980;5.848;2023-05-13T14:17:05;1.00;;;0.47;;
42018;SDS011;27703;51.980;5.848;2023-05-13T14:19:30;1.27;;;0.50;;
42018;SDS011;27703;51.980;5.848;2023-05-13T14:21:56;1.85;;;0.75;;
42018;SDS011;27703;51.980;5.848;2023-05-13T14:24:21;0.93;;;0.40;;
42018;SDS011;27703;51.980;5.848;2023-05-13T14:26:47;0.77;;;0.38;;
42018;SDS011;27703;51.980;5.848;2023-05-13T14:29:12;2.00;;;0.40;;
42018;SDS011;27703;51.980;5.848;2023-05-13T14:31:38;1.00;;;0.50;;
42018;SDS011;27703;51.980;5.848;2023-05-13T14:34:03;2.80;;;0.40;;
42018;SDS011;27703;51.980;5.848;2023-05-13T14:36:30;1.27;;;0.40;;
42018;SDS011;27703;51.980;5.848;2023-05-13T14:38:56;2.47;;;0.50;;
42018;SDS011;27703;51.980;5.848;2023-05-13T14:41:22;1.45;;;0.35;;
42018;SDS011;27703;51.980;5.848;2023-05-13T14:43:49;0.70;;;0.32;;
42018;SDS011;27703;51.980;5.848;2023-05-13T14:46:15;1.45;;;0.45;;
42018;SDS011;27703;51.980;5.848;2023-05-13T14:48:41;2.55;;;0.50;;
42018;SDS011;27703;51.980;5.848;2023-05-13T14:51:07;2.47;;;0.40;;
42018;SDS011;27703;51.980;5.848;2023-05-13T14:53:32;1.48;;;0.50;;
42018;SDS011;27703;51.980;5.848;2023-05-13T14:55:58;2.10;;;0.40;;
42018;SDS011;27703;51.980;5.848;2023-05-13T14:58:23;2.55;;;0.40;;
42018;SDS011;27703;51.980;5.848;2023-05-13T15:00:49;2.20;;;0.50;;
42018;SDS011;27703;51.980;5.848;2023-05-13T15:03:14;0.82;;;0.40;;
42018;SDS011;27703;51.980;5.848;2023-05-13T15:05:41;0.63;;;0.35;;
42018;SDS011;27703;51.980;5.848;2023-05-13T15:08:07;1.38;;;0.32;;
42018;SDS011;27703;51.980;5.848;2023-05-13T15:10:33;1.25;;;0.30;;
42018;SDS011;27703;51.980;5.848;2023-05-13T15:12:58;1.00;;;0.40;;
42018;SDS011;27703;51.980;5.848;2023-05-13T15:15:24;1.52;;;0.50;;